createdAt,value
2018-11-05T00:01:41.178Z,1.30
2018-11-05T00:04:09.892Z,1.00
2018-11-05T00:06:38.471Z,1.30
2018-11-05T00:09:09.822Z,0.90
2018-11-05T00:11:38.344Z,0.97
2018-11-05T00:14:07.337Z,1.00
2018-11-05T00:16:35.921Z,1.10
2018-11-05T00:19:04.567Z,1.03
2018-11-05T00:21:33.172Z,1.27
2018-11-05T00:24:01.699Z,0.97
2018-11-05T00:26:30.579Z,0.90
2018-11-05T00:28:59.182Z,1.00
2018-11-05T00:31:27.929Z,1.03
2018-11-05T00:33:56.510Z,0.93
2018-11-05T00:36:25.012Z,1.10
2018-11-05T00:38:53.507Z,1.10
2018-11-05T00:41:22.042Z,1.30
2018-11-05T00:43:50.770Z,1.10
2018-11-05T00:46:19.235Z,1.40
2018-11-05T00:48:47.939Z,0.90
2018-11-05T00:51:16.438Z,1.20
2018-11-05T00:53:44.931Z,1.07
2018-11-05T00:56:13.451Z,1.30
2018-11-05T00:58:41.927Z,1.03
2018-11-05T01:01:10.827Z,0.83
2018-11-05T01:03:39.654Z,1.07
2018-11-05T01:06:08.601Z,1.33
2018-11-05T01:08:37.135Z,1.10
2018-11-05T01:11:05.999Z,1.10
2018-11-05T01:13:34.482Z,0.90
2018-11-05T01:16:02.968Z,1.03
2018-11-05T01:18:31.630Z,0.90
2018-11-05T01:21:00.119Z,1.43
2018-11-05T01:23:28.823Z,1.00
2018-11-05T01:25:57.387Z,1.10
2018-11-05T01:28:25.986Z,1.27
2018-11-05T01:30:54.459Z,0.80
2018-11-05T01:33:22.959Z,1.20
2018-11-05T01:35:51.662Z,1.03
2018-11-05T01:38:20.184Z,0.93
2018-11-05T01:40:48.912Z,1.07
2018-11-05T01:43:17.424Z,1.13
2018-11-05T01:45:45.986Z,1.03
2018-11-05T01:48:14.526Z,0.90
2018-11-05T01:50:43.090Z,1.07
2018-11-05T01:53:11.622Z,1.03
2018-11-05T01:55:40.131Z,1.03
2018-11-05T01:58:08.870Z,1.40
2018-11-05T02:00:37.354Z,0.80
2018-11-05T02:03:06.422Z,1.20
2018-11-05T02:05:34.950Z,1.10
2018-11-05T02:08:03.482Z,0.80
2018-11-05T02:10:32.180Z,1.47
2018-11-05T02:13:00.658Z,0.77
2018-11-05T02:15:29.589Z,1.23
2018-11-05T02:17:58.215Z,1.10
2018-11-05T02:20:26.880Z,1.30
2018-11-05T02:22:55.392Z,1.20
2018-11-05T02:25:23.995Z,1.10
2018-11-05T02:27:52.502Z,1.20
2018-11-05T02:30:20.991Z,1.27
2018-11-05T02:32:49.647Z,1.17
2018-11-05T02:35:18.760Z,1.20
2018-11-05T02:37:48.280Z,1.20
2018-11-05T02:40:18.217Z,1.10
2018-11-05T02:42:47.410Z,1.47
2018-11-05T02:45:16.981Z,1.10
2018-11-05T02:47:45.742Z,1.87
2018-11-05T02:50:14.782Z,1.57
2018-11-05T02:52:44.735Z,1.27
2018-11-05T02:55:13.259Z,1.43
2018-11-05T02:57:42.167Z,1.37
2018-11-05T03:00:13.359Z,1.40
2018-11-05T03:02:42.494Z,1.40
2018-11-05T03:05:13.963Z,1.37
2018-11-05T03:07:43.125Z,1.20
2018-11-05T03:10:12.338Z,1.20
2018-11-05T03:12:41.850Z,1.40
2018-11-05T03:15:12.095Z,1.50
2018-11-05T03:17:40.804Z,1.37
2018-11-05T03:20:10.761Z,1.30
2018-11-05T03:22:40.031Z,1.60
2018-11-05T03:25:08.912Z,1.80
2018-11-05T03:27:38.194Z,1.50
2018-11-05T03:30:09.407Z,1.57
2018-11-05T03:32:37.982Z,1.50
2018-11-05T03:35:07.695Z,1.43
2018-11-05T03:37:36.663Z,1.30
2018-11-05T03:40:05.883Z,1.80
2018-11-05T03:42:34.739Z,1.40
2018-11-05T03:45:03.291Z,1.50
2018-11-05T03:47:32.021Z,1.30
2018-11-05T03:50:00.587Z,1.60
2018-11-05T03:52:29.153Z,1.43
2018-11-05T03:54:57.686Z,1.47
2018-11-05T03:57:26.186Z,1.37
2018-11-05T03:59:55.072Z,1.60
2018-11-05T04:02:23.583Z,1.80
2018-11-05T04:04:52.322Z,1.47
2018-11-05T04:07:20.822Z,1.50
2018-11-05T04:09:49.336Z,1.90
2018-11-05T04:12:17.930Z,1.73
2018-11-05T04:14:46.452Z,1.77
2018-11-05T04:17:15.287Z,1.60
2018-11-05T04:19:43.790Z,1.90
2018-11-05T04:22:12.718Z,1.47
2018-11-05T04:24:41.348Z,1.90
2018-11-05T04:27:09.957Z,1.83
2018-11-05T04:29:38.502Z,1.50
2018-11-05T04:32:07.014Z,1.97
2018-11-05T04:34:35.719Z,1.80
2018-11-05T04:37:04.364Z,2.03
2018-11-05T04:39:33.204Z,1.80
2018-11-05T04:42:01.775Z,2.67
2018-11-05T04:44:30.670Z,1.63
2018-11-05T04:46:59.207Z,1.80
2018-11-05T04:49:27.811Z,2.10
2018-11-05T04:51:56.373Z,2.20
2018-11-05T04:54:24.868Z,1.87
2018-11-05T04:56:53.506Z,1.87
2018-11-05T04:59:22.070Z,1.93
2018-11-05T05:01:50.753Z,1.60
2018-11-05T05:04:19.291Z,2.17
2018-11-05T05:06:48.445Z,1.70
2018-11-05T05:09:16.965Z,2.10
2018-11-05T05:11:45.491Z,2.17
2018-11-05T05:14:14.035Z,2.77
2018-11-05T05:16:42.539Z,2.17
2018-11-05T05:19:11.226Z,1.93
2018-11-05T05:21:39.818Z,2.20
2018-11-05T05:24:08.459Z,1.80
2018-11-05T05:26:36.974Z,2.17
2018-11-05T05:29:05.756Z,2.03
2018-11-05T05:31:34.328Z,2.30
2018-11-05T05:34:02.807Z,1.70
2018-11-05T05:36:31.605Z,2.07
2018-11-05T05:39:00.106Z,1.83
2018-11-05T05:41:28.980Z,1.83
2018-11-05T05:43:57.543Z,2.30
2018-11-05T05:46:26.079Z,1.80
2018-11-05T05:48:54.635Z,1.67
2018-11-05T05:51:23.152Z,1.90
2018-11-05T05:53:52.110Z,2.00
2018-11-05T05:56:20.582Z,1.93
2018-11-05T05:58:49.502Z,2.17
2018-11-05T06:01:18.006Z,2.20
2018-11-05T06:03:46.532Z,1.90
2018-11-05T06:06:15.278Z,2.07
2018-11-05T06:08:43.773Z,1.47
2018-11-05T06:11:12.457Z,2.00
2018-11-05T06:13:40.960Z,1.97
2018-11-05T06:16:09.756Z,1.60
2018-11-05T06:18:38.355Z,2.60
2018-11-05T06:21:06.908Z,2.20
2018-11-05T06:23:35.477Z,1.80
2018-11-05T06:26:03.971Z,2.07
2018-11-05T06:28:32.815Z,2.43
2018-11-05T06:31:01.279Z,1.90
2018-11-05T06:33:29.992Z,1.80
2018-11-05T06:35:58.571Z,2.17
2018-11-05T06:38:27.641Z,2.50
2018-11-05T06:40:56.184Z,2.10
2018-11-05T06:43:24.971Z,2.13
2018-11-05T06:45:53.541Z,1.93
2018-11-05T06:48:22.047Z,1.50
2018-11-05T06:50:50.714Z,1.90
2018-11-05T06:53:19.211Z,1.82
2018-11-05T06:55:48.019Z,2.40
2018-11-05T06:58:16.595Z,1.97
2018-11-05T07:00:45.579Z,2.20
2018-11-05T07:03:14.099Z,1.90
2018-11-05T07:05:42.660Z,2.07
2018-11-05T07:08:11.114Z,2.27
2018-11-05T07:10:39.577Z,1.77
2018-11-05T07:13:08.338Z,1.80
2018-11-05T07:15:36.950Z,1.77
2018-11-05T07:18:05.900Z,1.97
2018-11-05T07:20:34.525Z,1.67
2018-11-05T07:23:03.047Z,1.90
2018-11-05T07:25:31.583Z,1.90
2018-11-05T07:28:00.079Z,1.57
2018-11-05T07:30:29.543Z,2.10
2018-11-05T07:32:58.091Z,1.70
2018-11-05T07:35:26.854Z,1.70
2018-11-05T07:37:55.511Z,2.10
2018-11-05T07:40:24.034Z,1.83
2018-11-05T07:42:52.570Z,1.70
2018-11-05T07:45:22.457Z,1.70
2018-11-05T07:47:51.023Z,1.93
2018-11-05T07:50:20.595Z,1.77
2018-11-05T07:52:49.418Z,1.93
2018-11-05T07:55:18.738Z,1.87
2018-11-05T07:57:48.475Z,1.80
2018-11-05T08:00:22.536Z,1.77
2018-11-05T08:02:54.008Z,1.80
2018-11-05T08:05:23.283Z,2.10
2018-11-05T08:07:51.945Z,1.97
2018-11-05T08:10:20.518Z,1.67
2018-11-05T08:12:49.181Z,1.80
2018-11-05T08:15:20.238Z,1.60
2018-11-05T08:17:49.870Z,2.07
2018-11-05T08:20:18.566Z,1.83
2018-11-05T08:22:47.216Z,1.63
2018-11-05T08:25:16.721Z,1.60
2018-11-05T08:27:45.183Z,2.37
2018-11-05T08:30:22.630Z,1.60
2018-11-05T08:32:51.518Z,1.77
2018-11-05T08:35:20.018Z,1.67
2018-11-05T08:37:49.273Z,2.10
2018-11-05T08:40:19.979Z,1.70
2018-11-05T08:42:49.689Z,1.67
2018-11-05T08:45:19.614Z,2.07
2018-11-05T08:47:48.509Z,2.20
2018-11-05T08:50:18.210Z,2.20
2018-11-05T08:52:47.072Z,1.93
2018-11-05T08:55:18.123Z,2.00
2018-11-05T08:57:47.219Z,2.00
2018-11-05T09:00:47.389Z,1.80
2018-11-05T09:03:16.019Z,1.73
2018-11-05T09:05:44.587Z,1.73
2018-11-05T09:08:13.214Z,1.47
2018-11-05T09:10:41.922Z,2.33
2018-11-05T09:13:10.291Z,2.30
2018-11-05T09:15:38.778Z,2.10
2018-11-05T09:18:07.759Z,1.73
2018-11-05T09:20:36.296Z,1.90
2018-11-05T09:23:05.539Z,2.10
2018-11-05T09:25:34.083Z,2.23
2018-11-05T09:28:02.635Z,1.90
2018-11-05T09:30:31.177Z,1.73
2018-11-05T09:32:59.705Z,1.60
2018-11-05T09:35:28.483Z,1.47
2018-11-05T09:37:56.946Z,1.70
2018-11-05T09:40:25.882Z,1.70
2018-11-05T09:42:54.625Z,1.80
2018-11-05T09:45:24.791Z,1.77
2018-11-05T09:47:53.270Z,1.90
2018-11-05T09:50:22.053Z,1.67
2018-11-05T09:52:50.547Z,1.70
2018-11-05T09:55:19.215Z,1.47
2018-11-05T09:57:47.909Z,1.70
2018-11-05T10:00:18.652Z,1.90
2018-11-05T10:02:52.637Z,1.70
2018-11-05T10:05:21.431Z,1.83
2018-11-05T10:07:49.995Z,1.70
2018-11-05T10:10:19.286Z,1.70
2018-11-05T10:12:47.795Z,1.97
2018-11-05T10:15:17.471Z,1.63
2018-11-05T10:17:46.104Z,1.70
2018-11-05T10:20:18.046Z,1.87
2018-11-05T10:22:46.858Z,1.80
2018-11-05T10:25:16.404Z,2.07
2018-11-05T10:27:45.174Z,1.70
2018-11-05T10:30:16.931Z,2.20
2018-11-05T10:32:45.484Z,1.90
2018-11-05T10:35:15.439Z,2.10
2018-11-05T10:37:43.984Z,1.97
2018-11-05T10:40:14.843Z,1.50
2018-11-05T10:42:44.310Z,1.90
2018-11-05T10:45:14.378Z,1.50
2018-11-05T10:47:42.871Z,1.80
2018-11-05T10:50:13.060Z,1.80
2018-11-05T10:52:42.039Z,1.87
2018-11-05T10:55:10.802Z,1.50
2018-11-05T10:57:39.734Z,1.90
2018-11-05T11:00:15.347Z,1.90
2018-11-05T11:02:48.031Z,1.97
2018-11-05T11:05:16.546Z,1.97
2018-11-05T11:07:45.282Z,1.90
2018-11-05T11:10:13.829Z,2.00
2018-11-05T11:12:42.376Z,1.80
2018-11-05T11:15:10.972Z,2.20
2018-11-05T11:17:39.898Z,1.80
2018-11-05T11:20:10.143Z,1.93
2018-11-05T11:22:38.898Z,2.20
2018-11-05T11:25:07.715Z,1.90
2018-11-05T11:27:36.342Z,1.63
2018-11-05T11:30:05.053Z,1.90
2018-11-05T11:32:33.627Z,1.80
2018-11-05T11:35:02.438Z,1.90
2018-11-05T11:37:30.971Z,2.07
2018-11-05T11:39:59.669Z,1.93
2018-11-05T11:42:28.379Z,1.93
2018-11-05T11:44:57.287Z,1.80
2018-11-05T11:47:25.899Z,1.90
2018-11-05T11:49:54.374Z,1.60
2018-11-05T11:52:23.339Z,2.10
2018-11-05T11:54:51.826Z,1.83
2018-11-05T11:57:20.986Z,1.97
2018-11-05T11:59:49.578Z,1.77
2018-11-05T12:02:18.915Z,1.90
2018-11-05T12:04:47.409Z,1.90
2018-11-05T12:07:15.970Z,1.87
2018-11-05T12:09:44.535Z,2.07
2018-11-05T12:12:13.075Z,2.57
2018-11-05T12:14:42.099Z,1.60
2018-11-05T12:17:10.566Z,2.23
2018-11-05T12:19:39.456Z,2.07
2018-11-05T12:22:07.963Z,1.83
2018-11-05T12:24:36.687Z,2.10
2018-11-05T12:27:05.461Z,1.67
2018-11-05T12:29:34.035Z,2.07
2018-11-05T12:32:02.783Z,2.03
2018-11-05T12:34:31.310Z,2.00
2018-11-05T12:37:00.203Z,2.07
2018-11-05T12:39:28.758Z,1.97
2018-11-05T12:41:57.331Z,1.93
2018-11-05T12:44:25.865Z,2.00
2018-11-05T12:46:54.448Z,1.97
2018-11-05T12:49:23.048Z,1.97
2018-11-05T12:51:51.650Z,1.70
2018-11-05T12:54:20.665Z,2.13
2018-11-05T12:56:49.225Z,2.07
2018-11-05T12:59:17.931Z,2.37
2018-11-05T13:01:46.612Z,2.33
2018-11-05T13:04:15.251Z,2.00
2018-11-05T13:06:43.866Z,2.20
2018-11-05T13:09:12.367Z,2.03
2018-11-05T13:11:41.235Z,2.30
2018-11-05T13:14:09.758Z,2.17
2018-11-05T13:16:38.488Z,2.23
2018-11-05T13:19:06.991Z,1.80
2018-11-05T13:21:35.510Z,2.40
2018-11-05T13:24:04.122Z,2.17
2018-11-05T13:26:32.628Z,2.00
2018-11-05T13:29:01.399Z,2.20
2018-11-05T13:31:29.952Z,2.10
2018-11-05T13:33:58.698Z,2.50
2018-11-05T13:36:27.257Z,1.90
2018-11-05T13:38:55.985Z,2.20
2018-11-05T13:41:24.458Z,2.07
2018-11-05T13:43:53.207Z,2.33
2018-11-05T13:46:22.362Z,2.20
2018-11-05T13:48:51.143Z,2.23
2018-11-05T13:51:19.278Z,2.40
2018-11-05T13:53:47.860Z,2.10
2018-11-05T13:56:16.562Z,2.07
2018-11-05T13:58:45.031Z,1.80
2018-11-05T14:01:13.606Z,1.90
2018-11-05T14:03:42.293Z,2.37
2018-11-05T14:06:10.876Z,2.20
2018-11-05T14:08:39.753Z,2.37
2018-11-05T14:11:08.964Z,2.10
2018-11-05T14:13:37.589Z,2.47
2018-11-05T14:16:06.654Z,2.20
2018-11-05T14:18:35.151Z,2.40
2018-11-05T14:21:03.807Z,2.17
2018-11-05T14:23:32.332Z,2.43
2018-11-05T14:26:00.912Z,2.60
2018-11-05T14:28:29.628Z,2.27
2018-11-05T14:30:58.446Z,2.30
2018-11-05T14:33:26.925Z,2.60
2018-11-05T14:35:55.603Z,1.60
2018-11-05T14:38:24.176Z,2.30
2018-11-05T14:40:52.647Z,2.20
2018-11-05T14:43:21.218Z,1.90
2018-11-05T14:45:50.003Z,2.43
2018-11-05T14:48:18.588Z,2.60
2018-11-05T14:50:47.246Z,2.40
2018-11-05T14:53:15.904Z,1.97
2018-11-05T14:55:44.378Z,2.20
2018-11-05T14:58:12.987Z,2.50
2018-11-05T15:00:41.503Z,2.13
2018-11-05T15:03:09.991Z,2.27
2018-11-05T15:05:38.768Z,2.37
2018-11-05T15:08:07.393Z,2.43
2018-11-05T15:10:36.159Z,2.60
2018-11-05T15:13:04.988Z,2.53
2018-11-05T15:15:33.562Z,2.63
2018-11-05T15:18:02.105Z,2.53
2018-11-05T15:20:30.604Z,2.13
2018-11-05T15:22:59.198Z,2.27
2018-11-05T15:25:28.047Z,2.60
2018-11-05T15:27:56.713Z,2.13
2018-11-05T15:30:25.255Z,2.57
2018-11-05T15:32:54.182Z,1.83
2018-11-05T15:35:22.715Z,2.63
2018-11-05T15:37:51.461Z,2.30
2018-11-05T15:40:20.947Z,1.93
2018-11-05T15:42:49.547Z,2.60
2018-11-05T15:45:19.312Z,2.40
2018-11-05T15:47:47.858Z,2.47
2018-11-05T15:50:17.743Z,2.40
2018-11-05T15:52:46.815Z,2.20
2018-11-05T15:55:15.190Z,1.90
2018-11-05T15:57:43.699Z,2.33
2018-11-05T16:00:21.607Z,2.13
2018-11-05T16:02:51.623Z,2.30
2018-11-05T16:05:20.365Z,1.93
2018-11-05T16:07:49.034Z,2.40
2018-11-05T16:10:17.681Z,2.20
2018-11-05T16:12:46.664Z,2.20
2018-11-05T16:15:15.314Z,2.60
2018-11-05T16:17:44.115Z,2.53
2018-11-05T16:20:15.172Z,2.10
2018-11-05T16:22:44.541Z,2.20
2018-11-05T16:25:13.289Z,2.37
2018-11-05T16:27:42.028Z,2.10
2018-11-05T16:30:12.449Z,2.20
2018-11-05T16:32:41.674Z,2.80
2018-11-05T16:35:10.334Z,2.30
2018-11-05T16:37:38.930Z,1.97
2018-11-05T16:40:09.654Z,2.10
2018-11-05T16:42:38.613Z,2.40
2018-11-05T16:45:07.725Z,2.60
2018-11-05T16:47:36.746Z,2.30
2018-11-05T16:50:08.227Z,2.57
2018-11-05T16:52:36.994Z,2.07
2018-11-05T16:55:06.031Z,2.00
2018-11-05T16:57:34.645Z,2.37
2018-11-05T17:00:03.119Z,1.87
2018-11-05T17:02:31.754Z,2.23
2018-11-05T17:05:00.456Z,2.40
2018-11-05T17:07:28.964Z,2.60
2018-11-05T17:09:57.696Z,2.03
2018-11-05T17:12:26.215Z,2.20
2018-11-05T17:14:54.759Z,2.27
2018-11-05T17:17:23.338Z,2.13
2018-11-05T17:19:51.935Z,2.43
2018-11-05T17:22:21.124Z,2.40
2018-11-05T17:24:49.652Z,2.20
2018-11-05T17:27:18.602Z,2.37
2018-11-05T17:29:47.098Z,1.90
2018-11-05T17:32:15.853Z,2.30
2018-11-05T17:34:44.504Z,2.30
2018-11-05T17:37:13.099Z,2.17
2018-11-05T17:39:41.718Z,2.27
2018-11-05T17:42:10.235Z,2.13
2018-11-05T17:44:39.078Z,2.77
2018-11-05T17:47:08.011Z,2.03
2018-11-05T17:49:37.303Z,2.47
2018-11-05T17:52:05.970Z,2.33
2018-11-05T17:54:34.568Z,1.90
2018-11-05T17:57:03.136Z,2.50
2018-11-05T17:59:31.708Z,2.20
2018-11-05T18:02:00.451Z,2.40
2018-11-05T18:04:29.090Z,2.73
2018-11-05T18:06:59.027Z,2.20
2018-11-05T18:09:27.648Z,2.27
2018-11-05T18:11:56.651Z,2.10
2018-11-05T18:14:25.131Z,2.10
2018-11-05T18:16:53.884Z,2.30
2018-11-05T18:19:22.836Z,1.60
2018-11-05T18:21:51.520Z,3.33
2018-11-05T18:24:20.159Z,4.83
2018-11-05T18:26:48.666Z,7.20
2018-11-05T18:29:18.559Z,2.40
2018-11-05T18:31:47.072Z,5.13
2018-11-05T18:34:16.123Z,2.60
2018-11-05T18:36:44.583Z,2.27
2018-11-05T18:39:13.603Z,2.30
2018-11-05T18:41:42.095Z,1.70
2018-11-05T18:44:10.698Z,2.20
2018-11-05T18:46:39.182Z,2.40
2018-11-05T18:49:07.831Z,2.50
2018-11-05T18:51:36.644Z,2.60
2018-11-05T18:54:05.216Z,1.87
2018-11-05T18:56:34.229Z,1.97
2018-11-05T18:59:02.661Z,2.10
2018-11-05T19:01:31.366Z,2.23
2018-11-05T19:04:00.040Z,2.00
2018-11-05T19:06:28.560Z,2.00
2018-11-05T19:08:57.159Z,2.10
2018-11-05T19:11:26.607Z,1.87
2018-11-05T19:13:55.323Z,2.27
2018-11-05T19:16:23.976Z,2.10
2018-11-05T19:18:52.686Z,2.13
2018-11-05T19:21:21.151Z,2.50
2018-11-05T19:23:50.319Z,1.90
2018-11-05T19:26:18.791Z,2.30
2018-11-05T19:28:47.346Z,2.00
2018-11-05T19:31:16.113Z,2.10
2018-11-05T19:33:44.732Z,2.20
2018-11-05T19:36:13.701Z,1.93
2018-11-05T19:38:42.161Z,2.50
2018-11-05T19:41:10.825Z,2.43
2018-11-05T19:43:39.516Z,2.10
2018-11-05T19:46:08.125Z,2.07
2018-11-05T19:48:36.735Z,2.13
2018-11-05T19:51:05.551Z,1.77
2018-11-05T19:53:34.449Z,2.20
2018-11-05T19:56:02.997Z,2.20
2018-11-05T19:58:31.777Z,2.30
2018-11-05T20:01:00.254Z,2.03
2018-11-05T20:03:29.098Z,2.47
2018-11-05T20:05:57.737Z,2.20
2018-11-05T20:08:26.244Z,2.50
2018-11-05T20:10:54.796Z,2.37
2018-11-05T20:13:23.263Z,2.67
2018-11-05T20:15:52.202Z,2.40
2018-11-05T20:18:20.756Z,2.60
2018-11-05T20:20:49.711Z,2.47
2018-11-05T20:23:18.204Z,2.57
2018-11-05T20:25:46.753Z,2.87
2018-11-05T20:28:15.885Z,2.50
2018-11-05T20:30:44.375Z,2.97
2018-11-05T20:33:13.436Z,2.77
2018-11-05T20:35:41.727Z,2.70
2018-11-05T20:38:10.918Z,2.73
2018-11-05T20:40:39.360Z,2.43
2018-11-05T20:43:08.225Z,2.80
2018-11-05T20:45:36.782Z,2.60
2018-11-05T20:48:05.907Z,2.47
2018-11-05T20:50:34.386Z,2.83
2018-11-05T20:53:02.882Z,3.30
2018-11-05T20:55:31.762Z,2.70
2018-11-05T20:58:00.230Z,2.47
2018-11-05T21:00:29.119Z,2.57
2018-11-05T21:02:57.703Z,2.47
2018-11-05T21:05:26.483Z,2.80
2018-11-05T21:07:55.121Z,2.87
2018-11-05T21:10:23.716Z,2.57
2018-11-05T21:12:52.295Z,2.90
2018-11-05T21:15:22.147Z,3.17
2018-11-05T21:17:51.922Z,2.40
2018-11-05T21:20:20.435Z,2.37
2018-11-05T21:22:49.898Z,2.67
2018-11-05T21:25:18.354Z,2.43
2018-11-05T21:27:47.218Z,2.60
2018-11-05T21:30:17.661Z,2.40
2018-11-05T21:32:46.726Z,2.87
2018-11-05T21:35:16.611Z,2.70
2018-11-05T21:37:45.503Z,3.00
2018-11-05T21:40:15.606Z,2.83
2018-11-05T21:42:44.615Z,2.77
2018-11-05T21:45:14.258Z,3.20
2018-11-05T21:47:43.664Z,2.87
2018-11-05T21:50:13.838Z,3.10
2018-11-05T21:52:43.070Z,3.10
2018-11-05T21:55:11.713Z,2.90
2018-11-05T21:57:42.582Z,3.20
2018-11-05T22:00:17.352Z,3.07
2018-11-05T22:02:51.131Z,3.17
2018-11-05T22:05:19.786Z,3.57
2018-11-05T22:07:48.801Z,2.90
2018-11-05T22:10:17.401Z,4.10
2018-11-05T22:12:46.382Z,3.57
2018-11-05T22:15:15.141Z,3.63
2018-11-05T22:17:43.703Z,3.50
2018-11-05T22:20:13.212Z,3.20
2018-11-05T22:22:41.885Z,3.50
2018-11-05T22:25:11.194Z,3.47
2018-11-05T22:27:39.866Z,3.33
2018-11-05T22:30:10.210Z,3.40
2018-11-05T22:32:38.676Z,3.70
2018-11-05T22:35:07.482Z,4.00
2018-11-05T22:37:36.097Z,3.77
2018-11-05T22:40:05.976Z,3.50
2018-11-05T22:42:34.651Z,3.87
2018-11-05T22:45:03.148Z,3.43
2018-11-05T22:47:31.888Z,3.70
2018-11-05T22:50:00.362Z,3.87
2018-11-05T22:52:29.187Z,4.00
2018-11-05T22:54:57.722Z,3.27
2018-11-05T22:57:26.259Z,3.83
2018-11-05T22:59:54.841Z,3.63
2018-11-05T23:02:23.323Z,3.87
2018-11-05T23:04:52.484Z,4.03
2018-11-05T23:07:20.982Z,3.57
2018-11-05T23:09:49.672Z,3.47
2018-11-05T23:12:18.166Z,3.73
2018-11-05T23:14:46.866Z,4.03
2018-11-05T23:17:15.346Z,3.63
2018-11-05T23:19:43.843Z,3.77
2018-11-05T23:22:12.694Z,3.80
2018-11-05T23:24:41.158Z,3.60
2018-11-05T23:27:10.215Z,3.70
2018-11-05T23:29:38.749Z,3.87
2018-11-05T23:32:07.646Z,3.97
2018-11-05T23:34:36.269Z,3.73
2018-11-05T23:37:04.757Z,3.90
2018-11-05T23:39:33.302Z,3.53
2018-11-05T23:42:01.869Z,4.50
2018-11-05T23:44:30.762Z,3.80
2018-11-05T23:46:59.267Z,4.13
2018-11-05T23:49:27.975Z,4.13
2018-11-05T23:51:56.704Z,3.80
2018-11-05T23:54:25.120Z,4.73
2018-11-05T23:56:53.614Z,4.40
2018-11-05T23:59:22.068Z,4.23
